createdAt,value
2022-10-23T00:01:27.439Z,46.76
2022-10-23T00:03:57.110Z,46.07
2022-10-23T00:06:25.342Z,46.51
2022-10-23T00:08:52.405Z,46.61
2022-10-23T00:11:28.157Z,45.97
2022-10-23T00:13:57.656Z,46.40
2022-10-23T00:16:24.509Z,46.12
2022-10-23T00:18:51.376Z,46.65
2022-10-23T00:21:18.812Z,46.58
2022-10-23T00:23:46.741Z,46.91
2022-10-23T00:26:17.368Z,46.67
2022-10-23T00:28:45.752Z,47.06
2022-10-23T00:31:13.349Z,46.82
2022-10-23T00:33:41.212Z,46.50
2022-10-23T00:36:10.161Z,46.76
2022-10-23T00:38:37.660Z,46.43
2022-10-23T00:41:06.398Z,45.85
2022-10-23T00:43:34.257Z,45.58
2022-10-23T00:46:02.118Z,45.88
2022-10-23T00:48:29.639Z,46.14
2022-10-23T00:50:58.030Z,45.96
2022-10-23T00:53:25.372Z,46.37
2022-10-23T00:55:54.957Z,46.36
2022-10-23T00:58:22.378Z,46.81
2022-10-23T01:00:54.632Z,46.81
2022-10-23T01:03:26.237Z,47.65
2022-10-23T01:05:56.257Z,48.41
2022-10-23T01:08:35.216Z,48.15
2022-10-23T01:11:08.881Z,47.80
2022-10-23T01:13:39.761Z,48.26
2022-10-23T01:16:20.537Z,48.79
2022-10-23T01:19:16.731Z,49.16
2022-10-23T01:21:55.420Z,48.99
2022-10-23T01:24:41.185Z,49.97
2022-10-23T01:27:18.431Z,50.81
2022-10-23T01:29:59.209Z,51.08
2022-10-23T01:32:48.754Z,51.15
2022-10-23T01:35:29.255Z,51.34
2022-10-23T01:38:29.105Z,50.54
2022-10-23T01:41:10.081Z,50.10
2022-10-23T01:43:49.872Z,49.75
2022-10-23T01:46:18.359Z,49.52
2022-10-23T01:48:52.775Z,50.70
2022-10-23T01:51:22.187Z,50.60
2022-10-23T01:53:55.005Z,51.89
2022-10-23T01:56:33.267Z,53.64
2022-10-23T01:59:04.970Z,54.70
2022-10-23T02:01:41.906Z,54.33
2022-10-23T02:04:12.327Z,55.01
2022-10-23T02:06:39.489Z,54.21
2022-10-23T02:09:07.288Z,54.26
2022-10-23T02:11:42.739Z,53.13
2022-10-23T02:14:09.538Z,52.84
2022-10-23T02:16:47.273Z,53.68
2022-10-23T02:19:35.882Z,53.33
2022-10-23T02:22:16.723Z,53.99
2022-10-23T02:24:46.887Z,54.06
2022-10-23T02:27:17.675Z,53.92
2022-10-23T02:29:51.847Z,53.68
2022-10-23T02:32:24.555Z,52.93
2022-10-23T02:34:51.582Z,52.30
2022-10-23T02:37:18.749Z,51.90
2022-10-23T02:39:45.926Z,51.79
2022-10-23T02:42:26.020Z,51.45
2022-10-23T02:45:21.995Z,50.78
2022-10-23T02:48:01.933Z,50.91
2022-10-23T02:50:50.113Z,50.56
2022-10-23T02:53:22.804Z,50.61
2022-10-23T02:56:15.327Z,49.75
2022-10-23T02:59:10.026Z,49.30
2022-10-23T03:02:03.124Z,50.52
2022-10-23T03:04:33.015Z,50.51
2022-10-23T03:07:00.395Z,49.75
2022-10-23T03:09:28.383Z,49.88
2022-10-23T03:11:56.330Z,50.10
2022-10-23T03:14:23.837Z,50.02
2022-10-23T03:16:50.861Z,49.71
2022-10-23T03:19:17.784Z,50.38
2022-10-23T03:21:44.691Z,50.98
2022-10-23T03:24:11.693Z,51.70
2022-10-23T03:26:42.474Z,52.23
2022-10-23T03:29:10.151Z,53.73
2022-10-23T03:31:42.743Z,52.97
2022-10-23T03:34:11.482Z,53.57
2022-10-23T03:36:40.827Z,54.00
2022-10-23T03:39:09.151Z,55.56
2022-10-23T03:41:36.009Z,55.34
2022-10-23T03:46:34.850Z,57.60
2022-10-23T03:49:01.771Z,56.70
2022-10-23T03:51:28.756Z,55.11
2022-10-23T03:53:57.745Z,54.57
2022-10-23T03:56:24.639Z,54.25
2022-10-23T03:58:51.577Z,54.32
2022-10-23T04:01:18.705Z,54.34
2022-10-23T04:03:46.386Z,53.62
2022-10-23T04:06:15.807Z,53.48
2022-10-23T04:08:44.192Z,53.66
2022-10-23T04:11:16.055Z,54.13
2022-10-23T04:13:45.808Z,52.96
2022-10-23T04:16:12.938Z,53.24
2022-10-23T04:18:43.013Z,53.66
2022-10-23T04:21:11.295Z,54.23
2022-10-23T04:23:39.080Z,54.14
2022-10-23T04:26:11.715Z,55.83
2022-10-23T04:28:38.787Z,55.73
2022-10-23T04:31:05.901Z,55.11
2022-10-23T04:33:33.650Z,54.18
2022-10-23T04:36:00.604Z,53.40
2022-10-23T04:38:27.432Z,53.37
2022-10-23T04:40:54.400Z,52.78
2022-10-23T04:43:22.557Z,53.14
2022-10-23T04:45:50.286Z,53.94
2022-10-23T04:48:18.104Z,54.43
2022-10-23T04:51:06.539Z,55.15
2022-10-23T04:53:51.865Z,55.23
2022-10-23T04:56:41.813Z,54.63
2022-10-23T04:59:14.343Z,55.58
2022-10-23T05:01:42.299Z,54.36
2022-10-23T05:04:09.866Z,54.24
2022-10-23T05:06:59.325Z,54.13
2022-10-23T05:09:42.882Z,53.89
2022-10-23T05:12:37.153Z,53.62
2022-10-23T05:15:04.531Z,53.50
2022-10-23T05:17:44.093Z,52.90
2022-10-23T05:20:18.434Z,52.90
2022-10-23T05:22:49.113Z,52.85
2022-10-23T05:25:18.227Z,52.02
2022-10-23T05:27:52.614Z,52.55
2022-10-23T05:30:19.548Z,52.50
2022-10-23T05:32:46.772Z,52.70
2022-10-23T05:35:22.164Z,51.96
2022-10-23T05:37:53.628Z,51.37
2022-10-23T05:40:24.011Z,49.75
2022-10-23T05:42:56.743Z,47.81
2022-10-23T05:45:35.418Z,47.39
2022-10-23T05:48:34.376Z,45.85
2022-10-23T05:51:20.265Z,45.42
2022-10-23T05:53:54.829Z,43.97
2022-10-23T05:56:47.807Z,43.73
2022-10-23T05:59:23.498Z,43.50
2022-10-23T06:02:11.199Z,43.30
2022-10-23T06:04:53.203Z,43.38
2022-10-23T06:07:25.214Z,42.90
2022-10-23T06:09:54.447Z,42.83
2022-10-23T06:12:22.470Z,43.14
2022-10-23T06:14:51.953Z,42.58
2022-10-23T06:17:21.230Z,42.14
2022-10-23T06:19:48.526Z,42.94
2022-10-23T06:24:55.758Z,44.94
2022-10-23T06:27:26.565Z,44.76
2022-10-23T06:29:55.063Z,44.93
2022-10-23T06:32:22.539Z,45.31
2022-10-23T06:35:04.711Z,46.39
2022-10-23T06:37:34.380Z,46.42
2022-10-23T06:40:09.183Z,46.17
2022-10-23T06:42:56.233Z,42.01
2022-10-23T06:45:49.668Z,38.67
2022-10-23T06:48:36.776Z,37.13
2022-10-23T06:51:11.478Z,38.26
2022-10-23T06:53:43.702Z,38.82
2022-10-23T06:56:35.254Z,37.38
2022-10-23T06:59:07.776Z,37.04
2022-10-23T07:01:36.111Z,37.51
2022-10-23T07:04:03.142Z,37.23
2022-10-23T07:06:30.623Z,37.19
2022-10-23T07:08:59.606Z,37.56
2022-10-23T07:11:55.570Z,38.58
2022-10-23T07:14:32.337Z,40.31
2022-10-23T07:17:01.690Z,40.23
2022-10-23T07:19:29.335Z,41.43
2022-10-23T07:21:57.986Z,39.45
2022-10-23T07:24:44.547Z,39.49
2022-10-23T07:27:38.576Z,39.01
2022-10-23T07:30:08.510Z,37.83
2022-10-23T07:32:44.460Z,36.19
2022-10-23T07:35:39.819Z,37.34
2022-10-23T07:38:13.869Z,37.02
2022-10-23T07:40:47.275Z,35.60
2022-10-23T07:43:18.610Z,35.39
2022-10-23T07:45:50.038Z,35.27
2022-10-23T07:48:32.462Z,35.20
2022-10-23T07:51:08.462Z,36.61
2022-10-23T07:53:40.242Z,36.72
2022-10-23T07:56:30.125Z,37.60
2022-10-23T07:59:15.035Z,40.12
2022-10-23T08:01:50.563Z,40.16
2022-10-23T08:04:21.103Z,38.70
2022-10-23T08:06:56.692Z,38.27
2022-10-23T08:09:25.428Z,37.79
2022-10-23T08:11:52.417Z,37.85
2022-10-23T08:14:21.243Z,37.06
2022-10-23T08:16:49.007Z,37.76
2022-10-23T08:19:18.742Z,38.71
2022-10-23T08:21:47.417Z,38.67
2022-10-23T08:24:14.831Z,38.11
2022-10-23T08:26:44.698Z,37.25
2022-10-23T08:29:13.161Z,36.93
2022-10-23T08:31:40.995Z,36.54
2022-10-23T08:34:15.706Z,37.12
2022-10-23T08:36:45.180Z,37.37
2022-10-23T08:39:12.681Z,37.00
2022-10-23T08:41:51.711Z,36.98
2022-10-23T08:44:36.739Z,35.72
2022-10-23T08:47:12.037Z,36.49
2022-10-23T08:50:26.010Z,35.21
2022-10-23T08:53:10.210Z,34.68
2022-10-23T08:55:42.842Z,35.70
2022-10-23T08:58:24.581Z,35.83
2022-10-23T09:00:51.832Z,35.76
2022-10-23T09:03:18.903Z,36.25
2022-10-23T09:06:32.097Z,36.68
2022-10-23T09:09:27.220Z,34.85
2022-10-23T09:12:20.446Z,36.64
2022-10-23T09:15:08.375Z,35.63
2022-10-23T09:17:39.224Z,35.48
2022-10-23T09:20:23.185Z,34.22
2022-10-23T09:23:23.322Z,34.17
2022-10-23T09:25:57.117Z,33.96
2022-10-23T09:28:32.533Z,34.39
2022-10-23T09:31:10.843Z,35.33
2022-10-23T09:33:38.181Z,33.84
2022-10-23T09:36:19.969Z,35.93
2022-10-23T09:38:47.202Z,34.80
2022-10-23T09:41:23.739Z,35.67
2022-10-23T09:44:08.872Z,34.87
2022-10-23T09:46:41.683Z,34.66
2022-10-23T09:49:32.470Z,35.47
2022-10-23T09:52:08.159Z,35.54
2022-10-23T09:54:44.899Z,35.60
2022-10-23T09:57:30.194Z,34.04
2022-10-23T10:00:04.200Z,32.97
2022-10-23T10:02:38.819Z,32.83
2022-10-23T10:05:36.340Z,32.62
2022-10-23T10:08:21.247Z,33.75
2022-10-23T10:10:52.389Z,34.06
2022-10-23T10:13:52.289Z,32.54
2022-10-23T10:16:43.043Z,33.60
2022-10-23T10:19:48.741Z,31.50
2022-10-23T10:22:44.852Z,33.17
2022-10-23T10:25:27.425Z,30.67
2022-10-23T10:28:33.263Z,32.18
2022-10-23T10:31:53.031Z,31.74
2022-10-23T10:34:39.782Z,30.58
2022-10-23T10:37:13.931Z,30.49
2022-10-23T10:39:49.504Z,30.31
2022-10-23T10:43:04.652Z,29.93
2022-10-23T10:45:37.739Z,30.73
2022-10-23T10:48:35.129Z,29.36
2022-10-23T10:51:39.654Z,30.23
2022-10-23T10:54:48.288Z,29.34
2022-10-23T10:57:40.483Z,28.42
2022-10-23T11:00:26.287Z,28.01
2022-10-23T11:03:01.105Z,26.69
2022-10-23T11:05:44.976Z,28.04
2022-10-23T11:08:40.223Z,30.99
2022-10-23T11:11:22.969Z,30.06
2022-10-23T11:13:51.635Z,29.47
2022-10-23T11:16:33.087Z,29.19
2022-10-23T11:19:40.982Z,27.54
2022-10-23T11:22:40.542Z,26.84
2022-10-23T11:25:28.737Z,30.24
2022-10-23T11:28:19.536Z,30.64
2022-10-23T11:31:13.357Z,30.32
2022-10-23T11:34:17.109Z,28.59
2022-10-23T11:36:58.636Z,28.42
2022-10-23T11:39:30.901Z,26.40
2022-10-23T11:42:05.134Z,26.57
2022-10-23T11:44:35.038Z,25.54
2022-10-23T11:47:25.247Z,26.61
2022-10-23T11:50:05.295Z,27.35
2022-10-23T11:52:32.550Z,26.90
2022-10-23T11:55:04.176Z,26.25
2022-10-23T12:00:03.858Z,28.19
2022-10-23T12:02:43.451Z,29.14
2022-10-23T12:05:33.405Z,29.35
2022-10-23T12:08:02.658Z,28.86
2022-10-23T12:10:43.867Z,29.77
2022-10-23T12:13:32.514Z,30.76
2022-10-23T12:16:00.980Z,31.26
2022-10-23T12:18:28.365Z,31.57
2022-10-23T12:20:59.772Z,32.43
2022-10-23T12:23:34.727Z,32.73
2022-10-23T12:26:13.570Z,32.45
2022-10-23T12:29:01.708Z,28.80
2022-10-23T12:31:55.720Z,27.86
2022-10-23T12:34:56.550Z,27.60
2022-10-23T12:37:51.694Z,29.51
2022-10-23T12:40:18.646Z,28.79
2022-10-23T12:42:54.554Z,28.52
2022-10-23T12:45:37.057Z,29.80
2022-10-23T12:48:04.389Z,31.70
2022-10-23T12:50:33.551Z,32.43
2022-10-23T12:53:07.735Z,30.16
2022-10-23T12:55:50.219Z,28.26
2022-10-23T12:58:21.969Z,28.81
2022-10-23T13:00:52.563Z,27.54
2022-10-23T13:03:22.467Z,29.38
2022-10-23T13:05:55.489Z,29.44
2022-10-23T13:08:33.621Z,28.55
2022-10-23T13:11:22.515Z,26.99
2022-10-23T13:13:51.078Z,28.04
2022-10-23T13:16:21.013Z,29.37
2022-10-23T13:18:48.208Z,30.02
2022-10-23T13:21:24.163Z,31.61
2022-10-23T13:23:52.855Z,32.74
2022-10-23T13:26:49.240Z,33.14
2022-10-23T13:29:27.399Z,30.87
2022-10-23T13:31:54.460Z,30.38
2022-10-23T13:34:29.910Z,29.94
2022-10-23T13:37:23.899Z,30.52
2022-10-23T13:40:06.527Z,30.75
2022-10-23T13:42:33.641Z,31.58
2022-10-23T13:45:00.600Z,33.63
2022-10-23T13:47:27.487Z,32.74
2022-10-23T13:49:54.393Z,32.50
2022-10-23T13:52:23.882Z,32.44
2022-10-23T13:54:51.042Z,32.05
2022-10-23T13:57:17.950Z,32.12
2022-10-23T13:59:44.830Z,31.93
2022-10-23T14:02:20.260Z,31.94
2022-10-23T14:04:48.171Z,31.84
2022-10-23T14:07:15.114Z,32.64
2022-10-23T14:09:42.103Z,33.39
2022-10-23T14:12:09.063Z,33.32
2022-10-23T14:14:36.004Z,32.98
2022-10-23T14:17:02.917Z,33.67
2022-10-23T14:19:29.808Z,34.01
2022-10-23T14:21:56.679Z,34.01
2022-10-23T14:24:23.634Z,33.61
2022-10-23T14:26:50.470Z,33.71
2022-10-23T14:29:22.983Z,33.87
2022-10-23T14:31:50.085Z,34.50
2022-10-23T14:34:17.179Z,34.37
2022-10-23T14:36:50.408Z,34.53
2022-10-23T14:39:18.295Z,34.45
2022-10-23T14:41:45.201Z,34.14
2022-10-23T14:44:12.179Z,34.76
2022-10-23T14:46:39.078Z,35.26
2022-10-23T14:49:06.368Z,35.00
2022-10-23T14:51:33.609Z,34.95
2022-10-23T14:54:03.037Z,34.82
2022-10-23T14:56:31.830Z,34.60
2022-10-23T14:59:02.964Z,34.99
2022-10-23T15:01:34.546Z,35.87
2022-10-23T15:04:01.825Z,36.26
2022-10-23T15:06:28.960Z,36.88
2022-10-23T15:08:56.040Z,36.66
2022-10-23T15:11:24.369Z,36.86
2022-10-23T15:13:51.599Z,37.10
2022-10-23T15:16:18.701Z,37.02
2022-10-23T15:18:45.539Z,37.62
2022-10-23T15:21:14.780Z,37.61
2022-10-23T15:23:46.046Z,37.77
2022-10-23T15:26:20.283Z,37.49
2022-10-23T15:28:48.339Z,38.36
2022-10-23T15:31:44.246Z,38.24
2022-10-23T15:34:17.996Z,38.30
2022-10-23T15:36:47.063Z,38.65
2022-10-23T15:39:17.049Z,38.93
2022-10-23T15:41:44.518Z,39.44
2022-10-23T15:44:17.099Z,40.22
2022-10-23T15:46:44.273Z,40.37
2022-10-23T15:49:11.464Z,40.60
2022-10-23T15:51:39.092Z,40.20
2022-10-23T15:54:07.852Z,39.70
2022-10-23T15:56:35.697Z,40.59
2022-10-23T15:59:03.242Z,40.78
2022-10-23T16:01:30.394Z,41.05
2022-10-23T16:03:57.416Z,41.66
2022-10-23T16:06:24.703Z,41.77
2022-10-23T16:11:24.081Z,41.33
2022-10-23T16:13:51.568Z,40.85
2022-10-23T16:16:18.627Z,41.30
2022-10-23T16:18:46.536Z,46.48
2022-10-23T16:21:24.892Z,47.94
2022-10-23T16:23:53.412Z,50.95
2022-10-23T16:26:21.126Z,52.00
2022-10-23T16:28:52.552Z,52.12
2022-10-23T16:31:21.289Z,52.54
2022-10-23T16:33:48.899Z,54.03
2022-10-23T16:36:16.583Z,54.33
2022-10-23T16:39:04.023Z,54.87
2022-10-23T16:41:49.574Z,53.72
2022-10-23T16:44:19.425Z,53.67
2022-10-23T16:47:06.218Z,53.53
2022-10-23T16:49:33.425Z,54.43
2022-10-23T16:52:00.323Z,54.20
2022-10-23T16:54:27.615Z,54.33
2022-10-23T16:56:54.581Z,55.71
2022-10-23T16:59:21.494Z,56.33
2022-10-23T17:01:48.644Z,55.40
2022-10-23T17:04:15.628Z,55.90
2022-10-23T17:06:42.700Z,57.02
2022-10-23T17:09:09.597Z,56.11
2022-10-23T17:11:38.667Z,56.11
2022-10-23T17:14:09.014Z,56.55
2022-10-23T17:16:40.300Z,55.70
2022-10-23T17:19:15.793Z,56.66
2022-10-23T17:21:48.238Z,55.93
2022-10-23T17:24:15.355Z,55.84
2022-10-23T17:26:42.774Z,55.75
2022-10-23T17:29:11.366Z,56.96
2022-10-23T17:31:40.692Z,57.19
2022-10-23T17:34:11.754Z,57.84
2022-10-23T17:36:43.386Z,58.15
2022-10-23T17:39:13.172Z,58.00
2022-10-23T17:41:41.018Z,57.54
2022-10-23T17:44:08.228Z,55.88
2022-10-23T17:46:35.276Z,57.03
2022-10-23T17:49:03.383Z,57.46
2022-10-23T17:51:33.597Z,57.24
2022-10-23T17:54:06.295Z,58.46
2022-10-23T17:56:35.053Z,57.38
2022-10-23T17:59:05.565Z,56.61
2022-10-23T18:01:32.859Z,56.63
2022-10-23T18:04:02.344Z,56.42
2022-10-23T18:06:32.398Z,55.24
2022-10-23T18:09:01.154Z,56.70
2022-10-23T18:11:34.093Z,56.47
2022-10-23T18:14:01.915Z,57.20
2022-10-23T18:16:29.084Z,56.87
2022-10-23T18:18:56.562Z,57.11
2022-10-23T18:21:24.347Z,56.63
2022-10-23T18:23:51.820Z,55.71
2022-10-23T18:26:21.844Z,53.97
2022-10-23T18:28:50.553Z,55.81
2022-10-23T18:31:18.991Z,57.96
2022-10-23T18:33:46.312Z,58.79
2022-10-23T18:36:16.308Z,59.26
2022-10-23T18:38:43.421Z,60.08
2022-10-23T18:41:10.761Z,60.68
2022-10-23T18:43:43.776Z,60.04
2022-10-23T18:46:15.433Z,59.40
2022-10-23T18:48:43.688Z,59.20
2022-10-23T18:51:16.110Z,59.21
2022-10-23T18:53:46.860Z,59.10
2022-10-23T18:56:15.110Z,59.01
2022-10-23T18:58:42.332Z,58.78
2022-10-23T19:01:09.342Z,59.13
2022-10-23T19:03:36.432Z,58.16
2022-10-23T19:06:06.896Z,56.97
2022-10-23T19:08:37.977Z,56.63
2022-10-23T19:11:06.578Z,57.77
2022-10-23T19:13:39.067Z,59.60
2022-10-23T19:16:21.601Z,59.29
2022-10-23T19:18:53.636Z,59.90
2022-10-23T19:21:24.455Z,61.47
2022-10-23T19:23:52.478Z,61.54
2022-10-23T19:26:19.505Z,61.03
2022-10-23T19:28:48.982Z,61.44
2022-10-23T19:31:16.129Z,61.97
2022-10-23T19:33:43.035Z,61.03
2022-10-23T19:36:14.072Z,59.14
2022-10-23T19:38:42.390Z,59.34
2022-10-23T19:41:10.055Z,58.45
2022-10-23T19:43:37.954Z,60.76
2022-10-23T19:46:09.318Z,61.29
2022-10-23T19:48:42.602Z,61.62
2022-10-23T19:51:09.732Z,62.04
2022-10-23T19:53:36.818Z,62.74
2022-10-23T19:56:06.275Z,63.07
2022-10-23T19:58:33.231Z,62.08
2022-10-23T20:01:10.766Z,58.75
2022-10-23T20:03:39.429Z,61.29
2022-10-23T20:06:09.579Z,61.37
2022-10-23T20:08:36.516Z,61.88
2022-10-23T20:11:03.784Z,62.95
2022-10-23T20:13:30.722Z,63.43
2022-10-23T20:15:57.612Z,62.05
2022-10-23T20:18:26.011Z,64.09
2022-10-23T20:20:54.311Z,62.51
2022-10-23T20:23:21.191Z,61.42
2022-10-23T20:25:48.218Z,64.30
2022-10-23T20:28:15.413Z,65.25
2022-10-23T20:30:44.524Z,65.91
2022-10-23T20:33:11.940Z,65.08
2022-10-23T20:35:42.982Z,64.81
2022-10-23T20:38:10.279Z,63.25
2022-10-23T20:40:37.772Z,63.25
2022-10-23T20:43:04.971Z,63.94
2022-10-23T20:45:31.979Z,65.04
2022-10-23T20:47:58.922Z,64.19
2022-10-23T20:50:26.127Z,61.97
2022-10-23T20:52:53.205Z,63.20
2022-10-23T20:55:20.240Z,61.97
2022-10-23T20:57:47.367Z,60.74
2022-10-23T21:00:15.690Z,60.54
2022-10-23T21:02:45.793Z,61.09
2022-10-23T21:05:14.207Z,63.17
2022-10-23T21:07:41.151Z,63.70
2022-10-23T21:10:08.399Z,62.69
2022-10-23T21:12:35.306Z,64.00
2022-10-23T21:15:02.221Z,64.22
2022-10-23T21:17:35.814Z,64.37
2022-10-23T21:20:03.150Z,63.70
2022-10-23T21:22:30.044Z,62.89
2022-10-23T21:24:58.574Z,64.66
2022-10-23T21:27:25.796Z,63.96
2022-10-23T21:29:52.637Z,64.66
2022-10-23T21:32:20.447Z,64.51
2022-10-23T21:34:47.409Z,64.99
2022-10-23T21:37:14.990Z,65.15
2022-10-23T21:39:43.628Z,65.43
2022-10-23T21:42:12.174Z,65.88
2022-10-23T21:44:39.065Z,64.46
2022-10-23T21:47:05.943Z,63.76
2022-10-23T21:49:32.842Z,63.46
2022-10-23T21:51:59.657Z,63.42
2022-10-23T21:54:26.769Z,62.79
2022-10-23T21:56:53.933Z,62.94
2022-10-23T21:59:24.365Z,64.01
2022-10-23T22:01:52.528Z,64.07
2022-10-23T22:04:20.512Z,63.48
2022-10-23T22:06:48.918Z,62.09
2022-10-23T22:09:19.610Z,60.73
2022-10-23T22:11:49.365Z,63.45
2022-10-23T22:14:16.309Z,67.92
2022-10-23T22:16:43.211Z,69.26
2022-10-23T22:19:15.571Z,68.98
2022-10-23T22:21:43.210Z,67.72
2022-10-23T22:24:10.155Z,67.08
2022-10-23T22:26:40.610Z,68.41
2022-10-23T22:29:15.146Z,68.19
2022-10-23T22:31:45.486Z,68.37
2022-10-23T22:34:28.818Z,66.55
2022-10-23T22:37:07.992Z,67.56
2022-10-23T22:39:35.003Z,67.26
2022-10-23T22:42:01.862Z,68.29
2022-10-23T22:44:28.966Z,69.44
2022-10-23T22:46:55.923Z,69.17
2022-10-23T22:49:22.861Z,68.29
2022-10-23T22:51:49.809Z,67.20
2022-10-23T22:54:16.639Z,68.12
2022-10-23T22:56:43.616Z,68.26
2022-10-23T22:59:10.693Z,67.76
2022-10-23T23:01:43.803Z,67.83
2022-10-23T23:04:37.951Z,67.91
2022-10-23T23:07:06.370Z,68.99
2022-10-23T23:09:36.709Z,68.44
2022-10-23T23:12:04.011Z,68.26
2022-10-23T23:14:30.894Z,68.17
2022-10-23T23:16:57.954Z,67.73
2022-10-23T23:19:26.696Z,68.66
2022-10-23T23:22:00.004Z,68.75
2022-10-23T23:24:27.404Z,68.53
2022-10-23T23:26:54.316Z,67.91
2022-10-23T23:29:21.796Z,67.70
2022-10-23T23:31:48.742Z,67.01
2022-10-23T23:34:15.646Z,66.88
2022-10-23T23:36:42.584Z,67.06
2022-10-23T23:39:10.552Z,67.65
2022-10-23T23:41:37.936Z,67.90
2022-10-23T23:44:04.965Z,67.45
2022-10-23T23:46:31.813Z,68.94
2022-10-23T23:48:58.649Z,72.38
2022-10-23T23:51:26.361Z,70.14
2022-10-23T23:53:53.758Z,69.64
2022-10-23T23:56:21.010Z,68.83
2022-10-23T23:58:47.889Z,71.42
